createdAt,value
2023-01-29T00:01:56.190Z,-3.80
2023-01-29T00:04:23.028Z,-3.80
2023-01-29T00:06:49.869Z,-3.80
2023-01-29T00:09:16.956Z,-3.90
2023-01-29T00:11:43.812Z,-3.90
2023-01-29T00:14:10.800Z,-3.90
2023-01-29T00:16:37.676Z,-3.90
2023-01-29T00:19:04.709Z,-3.90
2023-01-29T00:21:32.125Z,-3.90
2023-01-29T00:23:59.201Z,-3.90
2023-01-29T00:26:27.086Z,-3.80
2023-01-29T00:28:53.869Z,-3.80
2023-01-29T00:31:22.993Z,-3.80
2023-01-29T00:33:50.383Z,-3.80
2023-01-29T00:36:20.067Z,-3.90
2023-01-29T00:38:54.505Z,-3.80
2023-01-29T00:41:41.626Z,-3.90
2023-01-29T00:44:27.117Z,-3.90
2023-01-29T00:46:54.657Z,-3.90
2023-01-29T00:49:21.796Z,-3.90
2023-01-29T00:52:08.791Z,-3.90
2023-01-29T00:54:35.930Z,-4.00
2023-01-29T00:57:03.849Z,-4.00
2023-01-29T00:59:31.627Z,-3.90
2023-01-29T01:02:17.200Z,-4.00
2023-01-29T01:04:44.074Z,-4.00
2023-01-29T01:09:55.965Z,-4.00
2023-01-29T01:12:23.148Z,-4.00
2023-01-29T01:14:50.170Z,-4.10
2023-01-29T01:17:17.390Z,-4.10
2023-01-29T01:19:44.528Z,-4.10
2023-01-29T01:22:11.539Z,-4.10
2023-01-29T01:24:38.556Z,-4.00
2023-01-29T01:27:06.038Z,-4.00
2023-01-29T01:29:33.761Z,-4.10
2023-01-29T01:32:00.938Z,-4.10
2023-01-29T01:34:27.846Z,-4.00
2023-01-29T01:36:58.137Z,-4.00
2023-01-29T01:39:25.570Z,-4.00
2023-01-29T01:41:53.847Z,-3.90
2023-01-29T01:44:56.715Z,-3.90
2023-01-29T01:47:37.815Z,-3.80
2023-01-29T01:50:16.616Z,-3.80
2023-01-29T01:52:48.215Z,-3.60
2023-01-29T01:55:19.518Z,-3.50
2023-01-29T01:57:51.029Z,-3.50
2023-01-29T02:00:20.148Z,-3.40
2023-01-29T02:03:06.750Z,-3.40
2023-01-29T02:05:53.888Z,-3.40
2023-01-29T02:08:46.494Z,-3.30
2023-01-29T02:11:13.586Z,-3.30
2023-01-29T02:13:42.558Z,-3.20
2023-01-29T02:16:09.370Z,-3.20
2023-01-29T02:18:38.046Z,-3.20
2023-01-29T02:21:32.388Z,-3.20
2023-01-29T02:24:20.514Z,-3.20
2023-01-29T02:26:58.705Z,-3.20
2023-01-29T02:29:38.928Z,-3.30
2023-01-29T02:32:10.081Z,-3.40
2023-01-29T02:35:05.255Z,-3.40
2023-01-29T02:37:39.158Z,-3.40
2023-01-29T02:40:22.872Z,-3.50
2023-01-29T02:43:12.292Z,-3.50
2023-01-29T02:45:52.784Z,-3.40
2023-01-29T02:48:23.734Z,-3.40
2023-01-29T02:51:18.670Z,-3.40
2023-01-29T02:53:59.805Z,-3.40
2023-01-29T02:56:48.314Z,-3.30
2023-01-29T02:59:21.067Z,-3.30
2023-01-29T03:02:07.204Z,-3.30
2023-01-29T03:04:42.522Z,-3.30
2023-01-29T03:07:34.945Z,-3.30
2023-01-29T03:10:03.311Z,-3.30
2023-01-29T03:12:34.863Z,-3.30
2023-01-29T03:15:17.976Z,-3.30
2023-01-29T03:18:07.435Z,-3.30
2023-01-29T03:20:38.475Z,-3.30
2023-01-29T03:23:14.255Z,-3.40
2023-01-29T03:26:02.534Z,-3.30
2023-01-29T03:28:51.589Z,-3.30
2023-01-29T03:31:37.188Z,-3.30
2023-01-29T03:34:23.989Z,-3.10
2023-01-29T03:37:03.055Z,-3.00
2023-01-29T03:39:30.204Z,-2.90
2023-01-29T03:42:35.518Z,-2.80
2023-01-29T03:45:14.477Z,-2.70
2023-01-29T03:48:05.829Z,-2.70
2023-01-29T03:50:57.697Z,-2.60
2023-01-29T03:53:47.253Z,-2.50
2023-01-29T03:56:35.799Z,-2.50
2023-01-29T03:59:33.446Z,-2.40
2023-01-29T04:02:29.943Z,-2.40
2023-01-29T04:05:06.400Z,-2.30
2023-01-29T04:07:41.337Z,-2.30
2023-01-29T04:10:16.970Z,-2.20
2023-01-29T04:13:02.123Z,-2.30
2023-01-29T04:15:33.814Z,-2.30
2023-01-29T04:18:02.625Z,-2.30
2023-01-29T04:20:39.343Z,-2.30
2023-01-29T04:23:07.336Z,-2.30
2023-01-29T04:25:46.266Z,-2.30
2023-01-29T04:28:28.224Z,-2.30
2023-01-29T04:31:00.358Z,-2.40
2023-01-29T04:33:40.423Z,-2.40
2023-01-29T04:36:54.816Z,-2.40
2023-01-29T04:39:55.233Z,-2.30
2023-01-29T04:42:33.665Z,-2.30
2023-01-29T04:45:16.433Z,-2.30
2023-01-29T04:47:49.388Z,-2.30
2023-01-29T04:50:26.259Z,-2.20
2023-01-29T04:52:57.738Z,-2.20
2023-01-29T04:55:38.961Z,-2.20
2023-01-29T04:58:26.488Z,-2.20
2023-01-29T05:00:54.699Z,-2.10
2023-01-29T05:03:25.751Z,-2.00
2023-01-29T05:05:55.616Z,-2.00
2023-01-29T05:08:25.558Z,-2.00
2023-01-29T05:10:55.375Z,-2.00
2023-01-29T05:13:23.614Z,-2.00
2023-01-29T05:15:53.295Z,-2.00
2023-01-29T05:18:20.391Z,-1.90
2023-01-29T05:20:47.915Z,-1.90
2023-01-29T05:23:18.241Z,-1.90
2023-01-29T05:25:46.708Z,-1.80
2023-01-29T05:28:17.210Z,-1.80
2023-01-29T05:30:49.799Z,-1.80
2023-01-29T05:33:20.749Z,-1.80
2023-01-29T05:35:48.270Z,-1.70
2023-01-29T05:38:15.011Z,-1.70
2023-01-29T05:40:42.308Z,-1.60
2023-01-29T05:43:21.217Z,-1.60
2023-01-29T05:45:59.301Z,-1.60
2023-01-29T05:48:28.832Z,-1.60
2023-01-29T05:51:01.090Z,-1.60
2023-01-29T05:53:29.295Z,-1.60
2023-01-29T05:55:57.205Z,-1.60
2023-01-29T05:58:24.523Z,-1.60
2023-01-29T06:00:51.315Z,-1.60
2023-01-29T06:03:18.160Z,-1.60
2023-01-29T06:05:45.036Z,-1.60
2023-01-29T06:08:11.985Z,-1.50
2023-01-29T06:10:38.784Z,-1.50
2023-01-29T06:13:05.677Z,-1.50
2023-01-29T06:15:32.648Z,-1.50
2023-01-29T06:17:59.495Z,-1.50
2023-01-29T06:20:26.318Z,-1.50
2023-01-29T06:22:53.119Z,-1.50
2023-01-29T06:25:19.997Z,-1.50
2023-01-29T06:27:50.071Z,-1.40
2023-01-29T06:30:17.571Z,-1.40
2023-01-29T06:32:44.521Z,-1.40
2023-01-29T06:35:11.470Z,-1.40
2023-01-29T06:37:38.336Z,-1.40
2023-01-29T06:40:05.771Z,-1.30
2023-01-29T06:42:34.584Z,-1.30
2023-01-29T06:45:01.366Z,-1.30
2023-01-29T06:47:28.336Z,-1.30
2023-01-29T06:49:55.268Z,-1.30
2023-01-29T06:52:22.102Z,-1.20
2023-01-29T06:54:48.950Z,-1.20
2023-01-29T06:57:15.763Z,-1.20
2023-01-29T06:59:42.812Z,-1.20
2023-01-29T07:02:09.877Z,-1.20
2023-01-29T07:04:37.715Z,-1.20
2023-01-29T07:07:04.813Z,-1.20
2023-01-29T07:09:31.745Z,-1.20
2023-01-29T07:11:58.568Z,-1.10
2023-01-29T07:14:25.426Z,-1.10
2023-01-29T07:16:52.214Z,-1.10
2023-01-29T07:19:19.010Z,-1.10
2023-01-29T07:21:45.781Z,-1.10
2023-01-29T07:24:12.776Z,-1.00
2023-01-29T07:26:39.592Z,-1.00
2023-01-29T07:29:06.452Z,-1.00
2023-01-29T07:31:33.391Z,-1.00
2023-01-29T07:34:00.332Z,-1.00
2023-01-29T07:36:27.201Z,-1.00
2023-01-29T07:38:54.178Z,-0.90
2023-01-29T07:41:21.416Z,-0.90
2023-01-29T07:43:48.627Z,-0.90
2023-01-29T07:46:15.614Z,-0.80
2023-01-29T07:48:42.476Z,-0.80
2023-01-29T07:51:09.338Z,-0.80
2023-01-29T07:53:36.926Z,-0.80
2023-01-29T07:56:03.830Z,-0.80
2023-01-29T07:58:30.596Z,-0.80
2023-01-29T08:00:57.381Z,-0.70
2023-01-29T08:03:24.199Z,-0.70
2023-01-29T08:05:51.060Z,-0.60
2023-01-29T08:08:19.212Z,-0.60
2023-01-29T08:10:46.052Z,-0.60
2023-01-29T08:13:12.908Z,-0.60
2023-01-29T08:15:46.018Z,-0.60
2023-01-29T08:18:13.874Z,-0.50
2023-01-29T08:20:40.668Z,-0.50
2023-01-29T08:23:13.281Z,-0.50
2023-01-29T08:25:40.545Z,-0.50
2023-01-29T08:28:07.808Z,-0.50
2023-01-29T08:30:35.498Z,-0.40
2023-01-29T08:33:04.421Z,-0.40
2023-01-29T08:35:31.592Z,-0.40
2023-01-29T08:38:00.977Z,-0.40
2023-01-29T08:40:29.510Z,-0.40
2023-01-29T08:43:02.233Z,-0.40
2023-01-29T08:45:31.098Z,-0.30
2023-01-29T08:47:57.946Z,-0.30
2023-01-29T08:50:25.042Z,-0.30
2023-01-29T08:52:56.817Z,-0.30
2023-01-29T08:55:23.610Z,-0.30
2023-01-29T08:57:50.426Z,-0.30
2023-01-29T09:00:18.031Z,-0.20
2023-01-29T09:02:45.090Z,-0.20
2023-01-29T09:05:11.912Z,-0.20
2023-01-29T09:07:38.694Z,-0.20
2023-01-29T09:10:05.934Z,-0.10
2023-01-29T09:12:32.740Z,0.00
2023-01-29T09:14:59.537Z,0.00
2023-01-29T09:17:26.324Z,0.10
2023-01-29T09:19:53.287Z,0.10
2023-01-29T09:22:20.573Z,0.20
2023-01-29T09:24:47.482Z,0.20
2023-01-29T09:27:14.288Z,0.20
2023-01-29T09:29:41.125Z,0.30
2023-01-29T09:32:07.950Z,0.30
2023-01-29T09:34:35.186Z,0.30
2023-01-29T09:37:01.990Z,0.40
2023-01-29T09:39:28.792Z,0.40
2023-01-29T09:42:26.729Z,0.50
2023-01-29T09:45:05.844Z,0.60
2023-01-29T09:47:35.560Z,0.70
2023-01-29T09:50:07.904Z,0.70
2023-01-29T09:52:46.186Z,0.80
2023-01-29T09:55:18.948Z,0.80
2023-01-29T09:57:52.943Z,0.90
2023-01-29T10:00:28.983Z,0.90
2023-01-29T10:03:13.704Z,0.80
2023-01-29T10:06:02.273Z,0.80
2023-01-29T10:08:29.017Z,0.80
2023-01-29T10:11:32.206Z,0.80
2023-01-29T10:14:19.760Z,0.80
2023-01-29T10:17:07.987Z,0.80
2023-01-29T10:19:53.682Z,0.80
2023-01-29T10:22:32.420Z,0.90
2023-01-29T10:25:10.414Z,0.90
2023-01-29T10:27:40.808Z,1.00
2023-01-29T10:30:27.288Z,1.00
2023-01-29T10:32:56.556Z,1.00
2023-01-29T10:35:28.897Z,1.10
2023-01-29T10:38:01.490Z,1.10
2023-01-29T10:40:39.342Z,1.10
2023-01-29T10:43:12.918Z,1.10
2023-01-29T10:46:01.641Z,1.10
2023-01-29T10:48:41.106Z,1.20
2023-01-29T10:51:26.801Z,1.20
2023-01-29T10:54:22.300Z,1.20
2023-01-29T10:57:02.826Z,1.30
2023-01-29T10:59:32.689Z,1.30
2023-01-29T11:02:00.478Z,1.30
2023-01-29T11:04:29.633Z,1.30
2023-01-29T11:06:56.731Z,1.20
2023-01-29T11:09:26.598Z,1.30
2023-01-29T11:12:11.460Z,1.30
2023-01-29T11:14:56.768Z,1.20
2023-01-29T11:17:25.380Z,1.20
2023-01-29T11:19:55.644Z,1.30
2023-01-29T11:22:28.058Z,1.40
2023-01-29T11:25:16.804Z,1.40
2023-01-29T11:27:46.773Z,1.50
2023-01-29T11:30:23.323Z,1.50
2023-01-29T11:32:56.712Z,1.60
2023-01-29T11:35:25.393Z,1.70
2023-01-29T11:37:52.893Z,1.60
2023-01-29T11:40:19.771Z,1.50
2023-01-29T11:42:47.381Z,1.50
2023-01-29T11:45:34.876Z,1.50
2023-01-29T11:48:01.952Z,1.50
2023-01-29T11:50:33.617Z,1.50
2023-01-29T11:53:01.493Z,1.50
2023-01-29T11:55:48.233Z,1.50
2023-01-29T11:58:27.365Z,1.50
2023-01-29T12:00:55.559Z,1.50
2023-01-29T12:03:32.491Z,1.50
2023-01-29T12:06:05.825Z,1.60
2023-01-29T12:08:37.778Z,1.60
2023-01-29T12:11:27.861Z,1.60
2023-01-29T12:13:57.326Z,1.70
2023-01-29T12:16:38.154Z,1.70
2023-01-29T12:19:24.673Z,1.70
2023-01-29T12:21:59.800Z,1.70
2023-01-29T12:24:33.399Z,1.70
2023-01-29T12:27:24.667Z,1.70
2023-01-29T12:30:11.385Z,1.80
2023-01-29T12:32:56.770Z,1.70
2023-01-29T12:35:32.192Z,1.70
2023-01-29T12:38:14.536Z,1.70
2023-01-29T12:40:49.776Z,1.70
2023-01-29T12:43:18.914Z,1.70
2023-01-29T12:45:52.065Z,1.70
2023-01-29T12:48:34.695Z,1.80
2023-01-29T12:51:26.846Z,1.80
2023-01-29T12:53:59.693Z,1.80
2023-01-29T12:56:31.217Z,1.80
2023-01-29T12:59:01.290Z,1.80
2023-01-29T13:01:44.734Z,1.90
2023-01-29T13:04:32.960Z,1.80
2023-01-29T13:07:18.904Z,1.90
2023-01-29T13:09:50.610Z,1.90
2023-01-29T13:12:20.648Z,1.90
2023-01-29T13:15:01.166Z,2.00
2023-01-29T13:17:37.985Z,2.00
2023-01-29T13:20:21.486Z,1.90
2023-01-29T13:22:50.401Z,1.90
2023-01-29T13:25:19.867Z,1.90
2023-01-29T13:27:48.046Z,1.90
2023-01-29T13:30:44.306Z,1.80
2023-01-29T13:33:23.053Z,1.90
2023-01-29T13:35:58.797Z,1.90
2023-01-29T13:38:33.069Z,1.90
2023-01-29T13:41:06.166Z,1.90
2023-01-29T13:43:37.334Z,2.00
2023-01-29T13:46:18.326Z,2.00
2023-01-29T13:48:48.347Z,2.00
2023-01-29T13:51:20.182Z,2.10
2023-01-29T13:53:57.199Z,2.10
2023-01-29T13:56:30.244Z,2.10
2023-01-29T13:58:57.767Z,2.10
2023-01-29T14:01:46.257Z,2.10
2023-01-29T14:04:18.922Z,2.10
2023-01-29T14:06:48.501Z,2.10
2023-01-29T14:09:36.939Z,2.10
2023-01-29T14:12:22.031Z,2.00
2023-01-29T14:14:48.980Z,1.90
2023-01-29T14:17:18.346Z,1.90
2023-01-29T14:19:54.611Z,1.90
2023-01-29T14:22:27.605Z,1.90
2023-01-29T14:24:58.508Z,1.90
2023-01-29T14:27:25.750Z,1.90
2023-01-29T14:30:00.706Z,1.90
2023-01-29T14:32:27.995Z,1.90
2023-01-29T14:35:03.143Z,1.90
2023-01-29T14:37:36.458Z,2.00
2023-01-29T14:40:35.626Z,2.00
2023-01-29T14:43:19.743Z,2.00
2023-01-29T14:45:49.972Z,2.00
2023-01-29T14:48:46.364Z,2.00
2023-01-29T14:51:16.513Z,2.00
2023-01-29T14:54:22.110Z,2.00
2023-01-29T14:57:05.016Z,2.00
2023-01-29T14:59:46.379Z,2.00
2023-01-29T15:02:20.007Z,2.00
2023-01-29T15:04:51.351Z,1.90
2023-01-29T15:07:49.953Z,1.90
2023-01-29T15:10:27.364Z,1.90
2023-01-29T15:13:16.009Z,1.90
2023-01-29T15:16:11.420Z,1.90
2023-01-29T15:18:40.791Z,1.90
2023-01-29T15:21:16.629Z,1.90
2023-01-29T15:23:44.667Z,1.90
2023-01-29T15:26:17.774Z,1.90
2023-01-29T15:28:51.853Z,1.90
2023-01-29T15:31:26.259Z,1.90
2023-01-29T15:33:55.795Z,1.90
2023-01-29T15:36:26.555Z,2.00
2023-01-29T15:39:15.845Z,2.00
2023-01-29T15:41:44.426Z,2.00
2023-01-29T15:44:16.718Z,1.90
2023-01-29T15:46:49.756Z,2.00
2023-01-29T15:49:30.360Z,2.00
2023-01-29T15:52:00.701Z,2.00
2023-01-29T15:54:31.137Z,2.00
2023-01-29T15:56:58.701Z,2.00
2023-01-29T15:59:26.825Z,1.90
2023-01-29T16:01:54.542Z,2.00
2023-01-29T16:04:26.961Z,2.00
2023-01-29T16:06:55.819Z,2.00
2023-01-29T16:09:25.653Z,2.00
2023-01-29T16:11:54.094Z,2.00
2023-01-29T16:14:25.415Z,2.00
2023-01-29T16:16:53.550Z,2.00
2023-01-29T16:19:25.751Z,2.00
2023-01-29T16:22:01.823Z,2.00
2023-01-29T16:24:31.020Z,2.00
2023-01-29T16:27:17.100Z,2.00
2023-01-29T16:29:44.333Z,1.90
2023-01-29T16:32:13.772Z,1.90
2023-01-29T16:34:48.119Z,1.90
2023-01-29T16:37:30.286Z,2.00
2023-01-29T16:39:57.682Z,2.00
2023-01-29T16:42:28.598Z,2.00
2023-01-29T16:45:04.484Z,2.00
2023-01-29T16:47:38.055Z,2.00
2023-01-29T16:50:40.695Z,2.00
2023-01-29T16:53:23.067Z,2.00
2023-01-29T16:55:52.666Z,1.90
2023-01-29T16:58:22.714Z,2.00
2023-01-29T17:00:54.080Z,2.00
2023-01-29T17:03:24.543Z,2.00
2023-01-29T17:05:52.408Z,2.00
2023-01-29T17:08:31.888Z,2.00
2023-01-29T17:10:59.738Z,2.00
2023-01-29T17:13:42.624Z,2.00
2023-01-29T17:16:29.723Z,2.00
2023-01-29T17:18:56.681Z,2.10
2023-01-29T17:21:23.887Z,2.10
2023-01-29T17:23:51.497Z,2.00
2023-01-29T17:26:18.761Z,2.00
2023-01-29T17:28:48.691Z,2.00
2023-01-29T17:31:15.642Z,2.10
2023-01-29T17:33:43.627Z,2.10
2023-01-29T17:36:13.193Z,2.10
2023-01-29T17:38:40.452Z,2.10
2023-01-29T17:41:20.065Z,2.10
2023-01-29T17:43:46.926Z,2.10
2023-01-29T17:46:15.563Z,2.10
2023-01-29T17:48:43.072Z,2.10
2023-01-29T17:51:11.688Z,2.10
2023-01-29T17:53:46.965Z,2.10
2023-01-29T17:56:16.873Z,2.10
2023-01-29T17:58:43.670Z,2.10
2023-01-29T18:01:10.442Z,2.10
2023-01-29T18:03:37.375Z,2.20
2023-01-29T18:06:07.865Z,2.20
2023-01-29T18:08:37.578Z,2.20
2023-01-29T18:11:04.627Z,2.20
2023-01-29T18:13:31.439Z,2.20
2023-01-29T18:15:58.297Z,2.20
2023-01-29T18:18:25.534Z,2.20
2023-01-29T18:20:52.416Z,2.20
2023-01-29T18:23:19.299Z,2.20
2023-01-29T18:25:46.091Z,2.20
2023-01-29T18:28:16.377Z,2.20
2023-01-29T18:30:45.661Z,2.20
2023-01-29T18:33:12.931Z,2.20
2023-01-29T18:35:40.050Z,2.20
2023-01-29T18:38:06.957Z,2.10
2023-01-29T18:40:33.973Z,2.10
2023-01-29T18:43:00.887Z,2.10
2023-01-29T18:45:28.863Z,2.10
2023-01-29T18:47:56.063Z,2.10
2023-01-29T18:50:23.446Z,2.10
2023-01-29T18:52:50.585Z,2.10
2023-01-29T18:55:17.724Z,2.10
2023-01-29T18:58:28.577Z,2.00
2023-01-29T19:00:31.582Z,2.00
2023-01-29T19:02:58.398Z,2.00
2023-01-29T19:05:25.614Z,2.00
2023-01-29T19:07:52.493Z,2.00
2023-01-29T19:10:19.384Z,2.00
2023-01-29T19:12:46.258Z,2.10
2023-01-29T19:15:13.092Z,2.10
2023-01-29T19:17:39.912Z,2.10
2023-01-29T19:20:07.414Z,2.10
2023-01-29T19:22:34.160Z,2.10
2023-01-29T19:25:01.072Z,2.00
2023-01-29T19:27:30.343Z,2.00
2023-01-29T19:29:59.355Z,2.00
2023-01-29T19:32:28.715Z,1.90
2023-01-29T19:34:55.527Z,1.90
2023-01-29T19:37:22.313Z,1.90
2023-01-29T19:39:49.207Z,1.90
2023-01-29T19:42:16.040Z,1.90
2023-01-29T19:44:42.988Z,1.80
2023-01-29T19:47:09.774Z,1.80
2023-01-29T19:49:36.672Z,1.80
2023-01-29T19:52:05.068Z,1.80
2023-01-29T19:54:31.938Z,1.80
2023-01-29T19:56:58.722Z,1.80
2023-01-29T19:59:25.510Z,1.80
2023-01-29T20:01:52.370Z,1.80
2023-01-29T20:04:19.201Z,1.80
2023-01-29T20:06:46.019Z,1.90
2023-01-29T20:09:12.861Z,1.90
2023-01-29T20:11:39.702Z,1.90
2023-01-29T20:14:06.584Z,1.90
2023-01-29T20:16:33.462Z,1.90
2023-01-29T20:19:13.934Z,1.90
2023-01-29T20:21:42.173Z,1.90
2023-01-29T20:24:13.112Z,1.90
2023-01-29T20:26:40.279Z,1.90
2023-01-29T20:29:07.401Z,1.90
2023-01-29T20:31:34.190Z,1.90
2023-01-29T20:34:01.041Z,1.90
2023-01-29T20:36:27.890Z,2.00
2023-01-29T20:38:54.668Z,2.00
2023-01-29T20:41:21.740Z,2.00
2023-01-29T20:43:50.662Z,2.00
2023-01-29T20:46:17.907Z,2.10
2023-01-29T20:48:44.746Z,2.10
2023-01-29T20:51:15.410Z,2.10
2023-01-29T20:53:45.013Z,2.10
2023-01-29T20:56:12.369Z,2.10
2023-01-29T20:58:40.841Z,2.20
2023-01-29T21:01:12.844Z,2.20
2023-01-29T21:03:40.114Z,2.20
2023-01-29T21:06:08.711Z,2.20
2023-01-29T21:08:36.377Z,2.30
2023-01-29T21:11:04.182Z,2.30
2023-01-29T21:13:31.010Z,2.20
2023-01-29T21:15:57.883Z,2.20
2023-01-29T21:18:26.266Z,2.20
2023-01-29T21:20:53.874Z,2.20
2023-01-29T21:23:20.967Z,2.20
2023-01-29T21:25:48.110Z,2.20
2023-01-29T21:28:15.890Z,2.30
2023-01-29T21:30:43.017Z,2.30
2023-01-29T21:33:09.865Z,2.40
2023-01-29T21:35:37.763Z,2.40
2023-01-29T21:38:04.681Z,2.40
2023-01-29T21:40:31.561Z,2.40
2023-01-29T21:43:13.458Z,2.40
2023-01-29T21:45:41.136Z,2.40
2023-01-29T21:48:10.300Z,2.50
2023-01-29T21:50:38.104Z,2.50
2023-01-29T21:53:05.087Z,2.50
2023-01-29T21:55:32.676Z,2.50
2023-01-29T21:58:00.238Z,2.50
2023-01-29T22:00:27.582Z,2.60
2023-01-29T22:02:54.557Z,2.60
2023-01-29T22:05:21.453Z,2.60
2023-01-29T22:07:49.285Z,2.60
2023-01-29T22:10:18.531Z,2.70
2023-01-29T22:12:46.548Z,2.70
2023-01-29T22:15:14.663Z,2.70
2023-01-29T22:17:42.113Z,2.70
2023-01-29T22:20:09.945Z,2.70
2023-01-29T22:22:36.700Z,2.80
2023-01-29T22:25:04.290Z,2.80
2023-01-29T22:27:34.179Z,2.80
2023-01-29T22:30:00.988Z,2.80
2023-01-29T22:32:27.995Z,2.80
2023-01-29T22:34:54.821Z,2.80
2023-01-29T22:37:21.622Z,2.80
2023-01-29T22:39:48.421Z,2.80
2023-01-29T22:42:15.225Z,2.80
2023-01-29T22:44:42.619Z,2.80
2023-01-29T22:47:09.437Z,2.80
2023-01-29T22:49:36.213Z,2.80
2023-01-29T22:52:12.337Z,2.90
2023-01-29T22:54:41.015Z,2.90
2023-01-29T22:57:10.863Z,2.90
2023-01-29T22:59:37.991Z,2.90
2023-01-29T23:02:05.310Z,2.90
2023-01-29T23:04:32.117Z,2.90
2023-01-29T23:06:59.055Z,2.90
2023-01-29T23:09:25.881Z,2.90
2023-01-29T23:11:52.783Z,2.90
2023-01-29T23:14:19.673Z,2.90
2023-01-29T23:16:46.480Z,2.90
2023-01-29T23:19:13.327Z,2.90
2023-01-29T23:21:40.109Z,2.90
2023-01-29T23:24:08.254Z,2.90
2023-01-29T23:26:53.782Z,2.90
2023-01-29T23:29:20.737Z,2.90
2023-01-29T23:31:47.616Z,2.90
2023-01-29T23:34:15.059Z,2.90
2023-01-29T23:36:42.409Z,2.90
2023-01-29T23:39:09.371Z,3.00
2023-01-29T23:41:36.255Z,3.00
2023-01-29T23:44:03.568Z,3.00
2023-01-29T23:46:30.551Z,3.00
2023-01-29T23:48:57.374Z,3.00
2023-01-29T23:51:24.262Z,3.00
2023-01-29T23:53:51.033Z,3.00
2023-01-29T23:56:18.027Z,3.10
2023-01-29T23:58:44.994Z,3.10
